Time;durP1;ratioP1;P1;durP2;ratioP2;P2;SDS_P1;SDS_P2;PMS_P1;PMS_P2;Temp;Humidity;BMP_temperature;BMP_pressure;BME280_temperature;BME280_humidity;BME280_pressure;Samples;Min_cycle;Max_cycle;Signal;HPM_P1;HPM_P2
2021/03/24 00:04:22;;;;;;;;;;;1.60;99.90;;;0.30;83.43;96514.84;10499281;28;2151;-85
2021/03/24 00:09:24;;;;;;;;;;;1.60;99.90;;;0.29;83.65;96521.16;10494028;28;2420;-86
2021/03/24 00:14:26;;;;;;;;;;;1.50;99.90;;;0.28;83.97;96516.06;10494659;28;1931;-84
2021/03/24 00:19:27;;;;;;;;;;;2.20;99.90;;;0.24;83.96;96516.44;10483953;28;1965;-88
2021/03/24 00:24:38;;;;;;;;;;;1.50;99.90;;;0.19;83.78;96515.38;10484725;28;2642;-85
2021/03/24 00:29:40;;;;;;;;;;;1.50;99.90;;;0.12;84.13;96512.66;10486926;28;2272;-84
2021/03/24 00:34:42;;;;;;;;;;;1.40;99.90;;;0.07;84.49;96517.72;10465539;28;2304;-84
2021/03/24 00:39:44;;;;;;;;;;;1.30;99.90;;;-0.03;84.56;96502.16;10477629;28;2339;-84
2021/03/24 00:44:46;;;;;;;;;;;1.30;99.90;;;-0.06;84.73;96497.28;10494380;28;2309;-85
2021/03/24 00:49:48;;;;;;;;;;;2.50;99.90;;;-0.10;84.91;96492.53;10457686;28;2286;-86
2021/03/24 00:55:05;;;;;;;;;;;1.10;99.90;;;-0.12;85.41;96490.09;10461575;28;1334;-84
2021/03/24 01:00:07;;;;;;;;;;;1.10;99.90;;;-0.18;85.75;96488.22;10470482;28;2328;-83
2021/03/24 01:05:08;;;;;;;;;;;1.10;99.90;;;-0.22;85.38;96481.66;10492659;28;2434;-84
2021/03/24 01:10:10;;;;;;;;;;;1.90;99.90;;;-0.27;85.77;96473.47;10498522;28;1898;-84
2021/03/24 01:15:12;;;;;;;;;;;1.00;99.90;;;-0.29;86.00;96478.13;10486745;28;2152;-86
2021/03/24 01:20:14;;;;;;;;;;;0.90;99.90;;;-0.16;86.01;96478.25;10519303;28;2013;-85
2021/03/24 01:25:27;;;;;;;;;;;1.00;99.90;;;-0.22;86.23;96478.19;10500334;28;2225;-84
2021/03/24 01:30:29;;;;;;;;;;;1.70;99.90;;;-0.21;85.51;96469.25;10529675;28;2291;-85
2021/03/24 01:35:30;;;;;;;;;;;1.00;99.90;;;-0.23;85.74;96474.75;10472980;28;2030;-87
2021/03/24 01:40:32;;;;;;;;;;;1.00;99.90;;;-0.22;85.61;96471.09;10469966;28;2316;-86
2021/03/24 01:45:34;;;;;;;;;;;1.00;99.90;;;-0.19;85.66;96473.38;10477194;28;2257;-86
2021/03/24 01:50:36;;;;;;;;;;;1.00;99.90;;;-0.23;85.77;96469.47;10468792;28;2371;-86
2021/03/24 01:55:49;;;;;;;;;;;2.70;99.90;;;-0.31;85.92;96466.94;10489959;28;2328;-87
2021/03/24 02:00:51;;;;;;;;;;;0.90;99.90;;;-0.37;85.67;96462.41;10474623;28;2542;-86
2021/03/24 02:05:53;;;;;;;;;;;0.90;99.90;;;-0.44;86.10;96456.25;10462971;28;2095;-87
2021/03/24 02:10:55;;;;;;;;;;;0.80;99.90;;;-0.50;86.14;96451.72;10470840;28;2068;-87
2021/03/24 02:15:57;;;;;;;;;;;0.70;99.90;;;-0.54;86.41;96451.25;10472301;28;2384;-88
2021/03/24 02:20:59;;;;;;;;;;;0.70;99.90;;;-0.58;87.03;96461.38;10470895;28;1922;-87
2021/03/24 02:26:13;;;;;;;;;;;0.70;99.90;;;-0.65;87.21;96464.94;10509729;28;1412;-86
2021/03/24 02:31:15;;;;;;;;;;;1.20;99.90;;;-0.68;87.60;96463.50;10471303;28;1309;-85
2021/03/24 02:36:17;;;;;;;;;;;0.60;99.90;;;-0.68;87.84;96463.50;10483445;28;2241;-87
2021/03/24 02:41:19;;;;;;;;;;;1.30;99.90;;;-0.69;88.14;96474.25;10464046;28;2181;-84
2021/03/24 02:46:21;;;;;;;;;;;1.40;99.90;;;-0.70;88.15;96468.16;10468906;28;2609;-86
2021/03/24 02:51:23;;;;;;;;;;;0.50;99.90;;;-0.72;88.45;96461.41;10492000;28;2396;-87
2021/03/24 02:56:40;;;;;;;;;;;0.50;99.90;;;-0.82;88.09;96456.44;10466716;28;2233;-87
2021/03/24 03:01:42;;;;;;;;;;;2.60;99.90;;;-0.78;88.07;96460.34;10465725;28;2108;-86
2021/03/24 03:06:44;;;;;;;;;;;0.40;99.90;;;-0.79;88.09;96464.00;10465695;28;2372;-86
2021/03/24 03:11:46;;;;;;;;;;;0.40;99.90;;;-0.74;88.77;96461.63;10471263;28;2570;-86
2021/03/24 03:16:48;;;;;;;;;;;0.50;99.90;;;-0.76;88.08;96463.63;10497715;28;2533;-85
2021/03/24 03:21:51;;;;;;;;;;;1.30;99.90;;;-0.76;88.79;96466.28;10485710;28;1952;-86
2021/03/24 03:27:02;;;;;;;;;;;0.50;99.90;;;-0.73;88.61;96468.53;10490064;28;2717;-85
2021/03/24 03:32:04;;;;;;;;;;;1.40;99.90;;;-0.62;88.73;96475.97;10483470;28;2056;-84
2021/03/24 03:37:07;;;;;;;;;;;2.60;99.90;;;-0.46;88.24;96479.38;10498043;28;2033;-86
2021/03/24 03:42:17;;;;;;;;;;;0.60;99.90;;;-0.32;87.71;96481.13;10481841;28;1965;-86
2021/03/24 03:47:19;;;;;;;;;;;2.90;99.90;;;-0.17;87.50;96471.34;10464780;28;2380;-86
2021/03/24 03:52:23;;;;;;;;;;;1.60;99.90;;;0.05;87.45;96473.97;10481375;28;1357;-85
2021/03/24 03:57:26;;;;;;;;;;;0.90;99.90;;;0.21;86.50;96474.53;10493594;28;2371;-86
2021/03/24 04:02:28;;;;;;;;;;;1.10;99.90;;;0.42;85.16;96481.59;10495018;28;2437;-86
2021/03/24 04:07:30;;;;;;;;;;;1.30;99.90;;;0.51;84.81;96472.50;10471312;28;2498;-86
2021/03/24 04:12:32;;;;;;;;;;;1.40;99.90;;;0.66;84.19;96477.69;10464328;28;2648;-86
2021/03/24 04:17:34;;;;;;;;;;;2.60;99.90;;;0.75;83.16;96480.97;10467892;28;2009;-86
2021/03/24 04:22:36;;;;;;;;;;;1.90;99.90;;;0.94;83.11;96474.16;10460203;28;2523;-87
2021/03/24 04:27:45;;;;;;;;;;;1.80;99.90;;;1.01;82.23;96478.47;10497355;28;2428;-85
2021/03/24 04:32:47;;;;;;;;;;;1.90;99.90;;;1.07;82.13;96475.03;10465518;28;2385;-86
2021/03/24 04:37:49;;;;;;;;;;;2.00;99.90;;;1.20;82.19;96481.41;10465882;28;2478;-87
2021/03/24 04:42:51;;;;;;;;;;;3.70;99.90;;;1.26;81.49;96483.28;10482728;28;2111;-86
2021/03/24 04:47:53;;;;;;;;;;;2.20;99.90;;;1.29;81.87;96478.41;10463439;28;2041;-87
2021/03/24 04:52:54;;;;;;;;;;;2.20;99.90;;;1.23;81.58;96486.34;10471746;28;2403;-86
2021/03/24 04:58:08;;;;;;;;;;;2.30;99.90;;;1.08;81.65;96482.00;10500804;28;2297;-85
2021/03/24 05:03:10;;;;;;;;;;;2.20;99.90;;;0.94;82.43;96487.41;10481521;28;2408;-85
2021/03/24 05:08:12;;;;;;;;;;;2.10;99.90;;;0.68;82.64;96488.88;10481142;28;2122;-86
2021/03/24 05:13:15;;;;;;;;;;;1.90;99.90;;;0.51;83.33;96495.50;10495898;28;2459;-86
2021/03/24 05:18:16;;;;;;;;;;;1.70;99.90;;;0.34;83.87;96489.66;10494647;28;1755;-83
2021/03/24 05:23:20;;;;;;;;;;;1.60;99.90;;;0.31;84.85;96497.97;10499667;28;2388;-84
2021/03/24 05:28:33;;;;;;;;;;;1.40;99.90;;;0.31;84.78;96505.91;10466994;28;2111;-83
2021/03/24 05:33:35;;;;;;;;;;;1.40;99.90;;;0.33;84.52;96511.84;10497304;28;2511;-84
2021/03/24 05:38:37;;;;;;;;;;;1.50;99.90;;;0.38;84.87;96508.59;10486213;28;2521;-83
2021/03/24 05:43:39;;;;;;;;;;;1.50;99.90;;;0.47;84.29;96503.00;10534394;28;2557;-84
2021/03/24 05:48:41;;;;;;;;;;;1.50;99.90;;;0.56;83.36;96505.50;10503432;28;2586;-82
2021/03/24 05:53:42;;;;;;;;;;;2.90;99.90;;;0.74;83.01;96509.28;10495535;28;2509;-86
2021/03/24 05:58:54;;;;;;;;;;;1.70;99.90;;;1.00;81.72;96513.91;10509420;28;1798;-85
2021/03/24 06:03:56;;;;;;;;;;;1.90;99.90;;;1.20;80.87;96518.50;10473091;28;2385;-84
2021/03/24 06:08:58;;;;;;;;;;;4.10;99.90;;;1.48;80.15;96513.13;10465251;28;2537;-85
2021/03/24 06:14:00;;;;;;;;;;;2.40;99.90;;;1.67;78.97;96508.91;10471710;28;2354;-85
2021/03/24 06:19:02;;;;;;;;;;;2.60;99.90;;;1.89;77.77;96513.03;10468157;28;1575;-84
2021/03/24 06:24:04;;;;;;;;;;;2.70;99.90;;;2.08;77.16;96501.63;10474179;28;2482;-84
2021/03/24 06:29:20;;;;;;;;;;;3.80;99.90;;;2.21;76.64;96489.41;10480553;28;2291;-86
2021/03/24 06:34:22;;;;;;;;;;;3.10;99.90;;;2.49;75.02;96490.03;10470220;28;2353;-85
2021/03/24 06:39:24;;;;;;;;;;;4.20;99.90;;;2.69;74.97;96497.97;10463636;28;2371;-86
2021/03/24 06:44:26;;;;;;;;;;;4.00;99.90;;;2.91;73.51;96501.19;10465047;28;2268;-87
2021/03/24 06:49:28;;;;;;;;;;;5.50;99.90;;;3.14;72.29;96506.88;10473212;28;2410;-86
2021/03/24 06:54:30;;;;;;;;;;;3.90;99.90;;;3.34;72.09;96509.47;10480911;28;2535;-86
2021/03/24 06:59:42;;;;;;;;;;;5.50;99.90;;;3.38;71.25;96509.88;10473290;28;2439;-86
2021/03/24 07:04:44;;;;;;;;;;;4.20;99.90;;;3.55;71.15;96513.66;10464189;28;2823;-85
2021/03/24 07:09:45;;;;;;;;;;;4.40;99.90;;;3.85;69.94;96526.44;10459693;28;2439;-85
2021/03/24 07:14:47;;;;;;;;;;;5.20;99.90;;;3.96;68.31;96515.94;10453073;28;2160;-85
2021/03/24 07:19:49;;;;;;;;;;;5.50;99.90;;;4.10;67.85;96527.31;10458237;28;2382;-85
2021/03/24 07:24:51;;;;;;;;;;;5.00;99.90;;;4.55;67.06;96530.66;10462939;28;2413;-85
2021/03/24 07:30:04;;;;;;;;;;;5.20;99.90;;;4.88;65.55;96530.38;10489306;28;2249;-86
2021/03/24 07:35:06;;;;;;;;;;;6.60;99.90;;;5.08;64.85;96538.19;10464724;28;1587;-84
2021/03/24 07:40:07;;;;;;;;;;;6.50;99.90;;;4.96;63.62;96533.81;10480587;28;1882;-85
2021/03/24 07:45:09;;;;;;;;;;;5.80;99.90;;;5.29;63.17;96530.81;10471995;28;1390;-86
2021/03/24 07:50:12;;;;;;;;;;;6.70;99.90;;;5.33;61.45;96532.00;10479469;28;2229;-86
2021/03/24 07:55:14;;;;;;;;;;;6.20;99.90;;;5.62;60.86;96535.78;10471189;28;2336;-86
2021/03/24 08:00:29;;;;;;;;;;;4.50;99.90;;;5.67;60.21;96536.75;10458407;28;2041;-86
2021/03/24 08:05:31;;;;;;;;;;;6.60;99.90;;;5.90;60.11;96544.03;10480812;28;2065;-87
2021/03/24 08:10:33;;;;;;;;;;;6.80;99.90;;;6.26;59.62;96542.38;10467190;28;2420;-84
2021/03/24 08:15:54;;;;;;;;;;;8.30;99.90;;;6.05;57.86;96534.88;10458158;28;2244;-84
2021/03/24 08:20:55;;;;;;;;;;;8.10;99.90;;;6.38;56.91;96523.72;10462912;28;2298;-83
2021/03/24 08:25:58;;;;;;;;;;;7.20;99.90;;;6.81;56.75;96523.44;10467012;28;2350;-85
2021/03/24 08:31:00;;;;;;;;;;;7.50;99.90;;;6.76;55.89;96523.31;10462630;28;2272;-84
2021/03/24 08:36:02;;;;;;;;;;;7.70;98.20;;;6.86;56.93;96518.19;10468585;28;2328;-86
2021/03/24 08:41:07;;;;;;;;;;;7.70;97.90;;;6.99;55.99;96515.28;10514357;28;1899;-89
2021/03/24 08:51:52;;;;;;;;;;;8.10;95.40;;;7.31;54.23;96501.53;10490252;28;1723;-84
2021/03/24 08:56:54;;;;;;;;;;;8.20;93.40;;;7.35;53.82;96499.22;10495518;28;1866;-83
2021/03/24 09:01:56;;;;;;;;;;;9.60;92.20;;;7.32;54.25;96497.84;10481470;28;2520;-83
2021/03/24 09:06:57;;;;;;;;;;;8.30;91.30;;;7.30;53.76;96502.59;10471415;28;2320;-83
2021/03/24 09:11:59;;;;;;;;;;;8.40;90.60;;;7.25;54.12;96497.13;10445519;28;2406;-84
2021/03/24 09:17:01;;;;;;;;;;;8.50;89.60;;;7.68;53.37;96501.25;10458269;28;2349;-82
2021/03/24 09:22:03;;;;;;;;;;;10.00;90.30;;;7.82;53.24;96495.41;10454902;28;2371;-87
2021/03/24 09:27:06;;;;;;;;;;;9.20;88.60;;;7.88;52.58;96498.97;10482924;28;2380;-83
2021/03/24 09:32:08;;;;;;;;;;;8.90;88.40;;;7.82;51.80;96502.59;10465482;28;1850;-86
2021/03/24 09:37:30;;;;;;;;;;;8.90;86.50;;;7.89;51.41;96500.63;10470366;28;2007;-86
2021/03/24 09:42:33;;;;;;;;;;;8.90;85.70;;;8.19;51.57;96505.69;10471761;28;2708;-84
2021/03/24 09:47:35;;;;;;;;;;;9.10;85.50;;;8.69;50.09;96490.78;10462496;28;2357;-84
2021/03/24 09:52:38;;;;;;;;;;;9.60;84.80;;;8.93;49.70;96486.88;10463570;28;2054;-86
2021/03/24 09:57:40;;;;;;;;;;;10.20;84.00;;;8.73;49.47;96482.00;10498226;28;1691;-82
2021/03/24 10:03:02;;;;;;;;;;;9.80;82.20;;;8.63;49.74;96469.25;10473917;28;2016;-83
2021/03/24 10:08:26;;;;;;;;;;;9.80;81.40;;;8.54;49.36;96462.69;10463549;28;2033;-86
2021/03/24 10:13:28;;;;;;;;;;;9.80;80.60;;;8.91;48.62;96462.19;10465906;28;1518;-85
2021/03/24 10:18:32;;;;;;;;;;;10.70;81.10;;;9.10;48.79;96447.44;10455701;28;2309;-84
2021/03/24 10:23:34;;;;;;;;;;;10.10;80.40;;;9.17;48.74;96450.75;10464106;28;1918;-86
2021/03/24 10:28:45;;;;;;;;;;;10.30;79.20;;;9.41;47.61;96440.56;10465291;28;2495;-87
2021/03/24 10:34:07;;;;;;;;;;;10.40;78.40;;;9.41;47.37;96439.75;10498938;28;2052;-87
2021/03/24 10:39:29;;;;;;;;;;;10.60;77.30;;;9.28;47.07;96434.75;10482654;28;2174;-87
2021/03/24 10:44:51;;;;;;;;;;;10.40;76.40;;;8.88;48.12;96436.66;10462768;28;1863;-88
2021/03/24 10:50:14;;;;;;;;;;;10.20;76.40;;;9.17;47.47;96426.59;10463665;28;2341;-88
2021/03/24 10:55:38;;;;;;;;;;;10.20;76.80;;;9.35;47.81;96419.28;10463092;28;2143;-88
2021/03/24 11:01:00;;;;;;;;;;;10.40;76.90;;;9.47;46.37;96419.97;10470426;28;2364;-89
2021/03/24 11:06:02;;;;;;;;;;;10.60;75.40;;;9.80;46.11;96415.50;10490087;28;2309;-87
2021/03/24 11:11:04;;;;;;;;;;;10.80;75.20;;;9.65;46.48;96411.59;10498951;28;1592;-88
2021/03/24 11:16:06;;;;;;;;;;;10.80;74.10;;;9.26;46.93;96410.88;10475743;28;2233;-86
2021/03/24 11:21:08;;;;;;;;;;;10.70;73.70;;;9.65;47.09;96403.53;10468476;28;2268;-88
2021/03/24 11:26:10;;;;;;;;;;;10.70;75.10;;;9.80;47.00;96400.22;10468756;28;2314;-87
2021/03/24 11:31:12;;;;;;;;;;;10.90;75.00;;;9.74;46.15;96391.31;10461414;28;2096;-88
2021/03/24 11:36:15;;;;;;;;;;;10.90;73.80;;;9.80;46.36;96375.22;10462301;28;1637;-86
2021/03/24 11:41:19;;;;;;;;;;;10.90;74.20;;;10.08;45.85;96385.72;10461574;28;2339;-85
2021/03/24 11:46:32;;;;;;;;;;;11.10;74.20;;;10.14;46.42;96371.25;10461868;28;2404;-87
2021/03/24 11:51:35;;;;;;;;;;;11.30;73.80;;;10.21;45.56;96366.47;10454094;28;2043;-88
2021/03/24 11:56:37;;;;;;;;;;;11.30;73.00;;;10.04;45.01;96365.78;10464056;28;2055;-88
2021/03/24 12:01:40;;;;;;;;;;;11.30;72.00;;;10.27;44.58;96356.63;10456112;28;2300;-88
2021/03/24 12:06:43;;;;;;;;;;;11.30;72.10;;;10.35;43.89;96348.06;10462394;28;2406;-87
2021/03/24 12:11:54;;;;;;;;;;;11.40;71.10;;;10.62;42.99;96337.22;10458297;28;2244;-88
2021/03/24 12:17:01;;;;;;;;;;;11.60;70.00;;;10.86;42.00;96331.44;10456474;28;1993;-88
2021/03/24 12:22:07;;;;;;;;;;;11.90;69.10;;;11.01;41.98;96315.38;10509295;22;2365;-88
2021/03/24 12:27:32;;;;;;;;;;;12.00;68.00;;;11.07;40.83;96317.84;10465545;28;1942;-88
2021/03/24 12:32:43;;;;;;;;;;;12.20;67.40;;;10.76;39.66;96311.50;10496140;28;2081;-87
2021/03/24 12:37:48;;;;;;;;;;;12.00;64.80;;;10.89;39.85;96304.84;10448147;28;1684;-87
2021/03/24 12:42:50;;;;;;;;;;;12.00;65.50;;;10.78;39.89;96298.59;10450204;28;1988;-87
2021/03/24 12:47:52;;;;;;;;;;;11.90;64.50;;;11.04;38.97;96293.34;10447406;28;1271;-85
2021/03/24 12:52:55;;;;;;;;;;;12.00;64.20;;;10.97;38.70;96300.84;10480586;28;1838;-85
2021/03/24 12:57:57;;;;;;;;;;;12.10;63.10;;;11.09;38.89;96294.16;10456968;28;1223;-87
2021/03/24 13:02:59;;;;;;;;;;;12.20;63.70;;;11.25;39.58;96286.13;10459863;28;2003;-88
2021/03/24 13:08:01;;;;;;;;;;;12.30;64.50;;;11.20;39.47;96276.19;10475578;28;1776;-86
2021/03/24 13:13:04;;;;;;;;;;;12.30;64.10;;;11.14;38.14;96273.75;10500790;28;1959;-84
2021/03/24 13:18:07;;;;;;;;;;;12.20;62.40;;;11.24;38.86;96265.69;10475218;28;2384;-85
2021/03/24 13:23:09;;;;;;;;;;;12.30;62.80;;;11.34;37.22;96263.81;10480176;28;2353;-85
2021/03/24 13:28:11;;;;;;;;;;;12.40;61.60;;;11.37;38.66;96262.47;10476572;28;2275;-85
2021/03/24 13:33:13;;;;;;;;;;;12.50;62.20;;;11.31;39.15;96250.06;10462520;28;1390;-85
2021/03/24 13:38:16;;;;;;;;;;;12.50;62.80;;;11.34;40.29;96253.06;10489078;28;2267;-85
2021/03/24 13:43:18;;;;;;;;;;;12.50;64.00;;;11.48;38.97;96247.16;10485644;28;2439;-85
2021/03/24 13:48:20;;;;;;;;;;;12.50;63.30;;;11.43;38.70;96249.84;10504468;28;2330;-84
2021/03/24 13:53:22;;;;;;;;;;;12.60;62.70;;;11.34;39.43;96247.69;10482249;28;2401;-84
2021/03/24 13:58:24;;;;;;;;;;;12.50;62.80;;;11.61;38.62;96241.25;10507851;28;1501;-84
2021/03/24 14:03:27;;;;;;;;;;;12.60;62.50;;;11.63;38.58;96228.31;10503116;28;1891;-85
2021/03/24 14:08:29;;;;;;;;;;;12.70;62.30;;;11.76;37.87;96222.38;10468015;28;2381;-84
2021/03/24 14:13:31;;;;;;;;;;;12.80;61.60;;;11.77;37.59;96221.31;10487395;28;1981;-85
2021/03/24 14:18:33;;;;;;;;;;;12.80;60.70;;;11.78;37.85;96214.88;10489257;28;2396;-84
2021/03/24 14:23:35;;;;;;;;;;;12.90;60.80;;;11.77;37.68;96215.94;10487367;28;2383;-85
2021/03/24 14:28:37;;;;;;;;;;;12.90;60.90;;;11.84;36.67;96211.13;10450667;28;2027;-83
2021/03/24 14:33:38;;;;;;;;;;;12.90;59.60;;;11.79;36.05;96205.69;10456626;28;2428;-87
2021/03/24 14:38:41;;;;;;;;;;;12.90;59.00;;;11.71;36.76;96197.38;10454276;28;2305;-88
2021/03/24 14:43:53;;;;;;;;;;;12.80;59.40;;;11.69;37.99;96192.22;10456916;28;2358;-86
2021/03/24 14:48:55;;;;;;;;;;;12.80;60.40;;;11.80;37.99;96185.75;10489562;28;1245;-88
2021/03/24 14:54:06;;;;;;;;;;;12.80;60.40;;;11.84;36.76;96188.75;10482464;28;3234;-88
2021/03/24 14:59:08;;;;;;;;;;;12.90;60.00;;;11.67;39.09;96190.91;10463279;28;3297;-87
2021/03/24 15:04:12;;;;;;;;;;;12.90;61.00;;;11.84;37.83;96189.56;10482824;28;2416;-90
2021/03/24 15:09:21;;;;;;;;;;;12.90;61.00;;;11.81;37.55;96176.63;10444959;28;2143;-89
2021/03/24 15:14:25;;;;;;;;;;;12.80;60.50;;;11.80;37.41;96180.38;10463354;28;2348;-87
2021/03/24 15:19:28;;;;;;;;;;;12.90;60.10;;;11.70;39.24;96180.38;10459572;28;2302;-86
2021/03/24 15:24:30;;;;;;;;;;;12.90;61.30;;;11.82;38.36;96174.75;10471396;28;2434;-87
2021/03/24 15:29:33;;;;;;;;;;;12.90;61.30;;;11.87;39.26;96175.53;10490204;28;2332;-87
2021/03/24 15:34:35;;;;;;;;;;;12.90;61.60;;;11.79;39.01;96173.38;10456840;28;2532;-86
2021/03/24 15:39:38;;;;;;;;;;;12.80;61.70;;;11.65;40.18;96177.72;10454064;28;2548;-88
2021/03/24 15:44:41;;;;;;;;;;;12.90;62.00;;;11.70;39.03;96169.59;10476363;28;2310;-87
2021/03/24 15:49:43;;;;;;;;;;;12.80;61.50;;;11.73;38.57;96163.69;10466571;28;1709;-87
2021/03/24 15:54:45;;;;;;;;;;;12.80;61.20;;;11.62;38.26;96162.06;10466664;28;1544;-87
2021/03/24 15:59:47;;;;;;;;;;;12.70;60.70;;;11.44;40.11;96171.50;10452872;28;2302;-85
2021/03/24 16:04:49;;;;;;;;;;;12.60;61.60;;;11.28;39.77;96169.88;10490123;28;2479;-85
2021/03/24 16:09:52;;;;;;;;;;;12.40;62.10;;;11.40;40.31;96164.25;10491827;28;2324;-87
2021/03/24 16:14:54;;;;;;;;;;;12.40;62.60;;;11.33;40.35;96165.31;10481497;28;2254;-89
2021/03/24 16:19:56;;;;;;;;;;;12.40;62.70;;;11.23;40.13;96164.50;10487535;28;2054;-88
2021/03/24 16:25:11;;;;;;;;;;;12.40;62.50;;;10.97;41.41;96167.16;10452605;28;2247;-85
2021/03/24 16:30:13;;;;;;;;;;;12.20;62.90;;;11.10;41.52;96160.44;10492949;28;1662;-87
2021/03/24 16:35:15;;;;;;;;;;;12.20;63.80;;;11.14;41.42;96166.13;10457976;28;2189;-88
2021/03/24 16:40:17;;;;;;;;;;;12.20;63.80;;;11.02;41.91;96156.41;10498159;28;2332;-86
2021/03/24 16:45:20;;;;;;;;;;;12.10;64.10;;;10.91;42.19;96157.47;10449705;28;2222;-87
2021/03/24 16:50:23;;;;;;;;;;;12.10;64.30;;;10.82;42.46;96159.06;10490413;28;2408;-88
2021/03/24 17:06:59;;;;;;;;;;;11.80;64.30;;;10.44;43.20;96179.91;10322207;28;1285;-84
2021/03/24 17:12:03;;;;;;;;;;;11.70;65.10;;;10.45;43.02;96167.28;10301339;28;1703;-86
2021/03/24 17:17:05;;;;;;;;;;;11.60;64.90;;;10.21;43.95;96167.66;10332937;28;2331;-87
2021/03/24 17:22:08;;;;;;;;;;;11.50;65.10;;;10.26;43.22;96174.97;10331298;28;2297;-88
2021/03/24 17:27:10;;;;;;;;;;;11.40;65.10;;;9.96;43.94;96178.28;10307869;28;1233;-85
2021/03/24 18:54:33;;;;;;;;;;;8.90;74.30;;;7.30;54.66;96224.47;10232724;29;2345;-89
2021/03/24 18:59:46;;;;;;;;;;;10.10;76.00;;;7.18;54.85;96229.88;10240940;29;2793;-88
2021/03/24 19:04:53;;;;;;;;;;;9.00;75.70;;;7.16;54.40;96233.88;10246048;29;2121;-89
2021/03/24 19:21:03;;;;;;;;;;;8.30;76.30;;;7.10;54.74;96237.50;10313010;28;2065;-87
2021/03/24 19:26:20;;;;;;;;;;;8.30;76.80;;;7.25;55.17;96249.28;10320326;28;2189;-89
2021/03/24 19:31:32;;;;;;;;;;;10.00;78.10;;;6.95;56.65;96243.38;10318817;28;1297;-88
2021/03/24 19:36:36;;;;;;;;;;;8.20;77.80;;;6.84;57.77;96246.91;10311698;28;2505;-88
2021/03/24 19:41:39;;;;;;;;;;;8.10;78.90;;;6.77;58.33;96250.53;10306325;28;1984;-89
2021/03/24 19:46:41;;;;;;;;;;;9.60;80.70;;;6.63;58.35;96248.38;10291499;28;2270;-86
2021/03/24 19:51:43;;;;;;;;;;;9.10;80.60;;;6.45;58.67;96254.69;10292954;28;2056;-89
2021/03/24 19:56:47;;;;;;;;;;;7.80;80.20;;;6.31;59.32;96256.00;10302059;28;2716;-86
2021/03/24 20:08:00;;;;;;;;;;;;;;;;;;;;;
2021/03/24 20:13:22;;;;;;;;;;;8.30;82.70;;;5.99;61.44;96258.22;10291227;28;1329;-87
2021/03/24 20:18:37;;;;;;;;;;;7.30;82.90;;;5.93;62.29;96260.78;10290693;28;2424;-88
2021/03/24 20:23:47;;;;;;;;;;;8.20;84.20;;;5.82;62.51;96264.22;10309232;28;1883;-87
2021/03/24 20:29:05;;;;;;;;;;;8.90;85.00;;;5.80;62.92;96260.97;10304303;28;2149;-86
2021/03/24 20:40:36;;;;;;;;;;;8.40;85.70;;;5.67;63.14;96251.34;10319220;28;2067;-87
2021/03/24 20:46:33;;;;;;;;;;;8.40;85.90;;;5.72;63.14;96247.97;10314303;28;2024;-88
2021/03/24 21:03:26;;;;;;;;;;;8.10;87.10;;;5.38;64.92;96245.03;10365256;23;3545;-87
2021/03/24 21:37:46;;;;;;;;;;;6.10;88.30;;;4.94;66.20;96238.31;10413303;28;1965;-85
2021/03/24 21:55:24;;;;;;;;;;;6.00;89.30;;;4.97;65.29;96242.38;10404585;28;2387;-86
2021/03/24 22:00:50;;;;;;;;;;;7.20;89.20;;;4.93;64.86;96239.34;10405695;28;1918;-87
2021/03/24 22:06:30;;;;;;;;;;;6.50;89.00;;;4.74;65.42;96238.56;10423713;28;2205;-85
2021/03/24 22:11:48;;;;;;;;;;;7.10;89.30;;;4.65;65.96;96241.78;10546150;23;2188;-86
2021/03/24 22:17:36;;;;;;;;;;;5.90;89.20;;;4.60;66.05;96234.47;10334577;28;1803;-86
2021/03/24 22:23:32;;;;;;;;;;;6.60;90.00;;;4.50;66.61;96234.19;10339820;28;2259;-85
2021/03/24 22:28:47;;;;;;;;;;;5.70;90.30;;;4.37;67.30;96234.34;10323435;28;2340;-87
2021/03/24 22:39:50;;;;;;;;;;;5.40;91.40;;;4.34;67.93;96228.44;10341504;28;2227;-86
2021/03/24 22:45:18;;;;;;;;;;;6.80;92.60;;;4.12;68.82;96226.44;10344586;28;2051;-86
2021/03/24 22:56:08;;;;;;;;;;;6.60;93.10;;;4.00;69.25;96218.38;10352329;28;2376;-88
2021/03/24 23:01:21;;;;;;;;;;;5.20;92.50;;;4.05;68.83;96221.19;10335381;28;2396;-86
2021/03/24 23:06:43;;;;;;;;;;;5.30;93.00;;;3.97;69.10;96218.81;10317897;28;2386;-85
2021/03/24 23:12:20;;;;;;;;;;;6.70;93.90;;;3.86;69.05;96217.69;10315050;28;2530;-87
2021/03/24 23:17:48;;;;;;;;;;;6.20;93.70;;;3.76;69.27;96217.41;10346949;28;2404;-87
2021/03/24 23:23:12;;;;;;;;;;;5.50;93.70;;;3.72;69.16;96217.03;10352268;28;2211;-87
2021/03/24 23:28:21;;;;;;;;;;;4.90;93.70;;;3.64;69.65;96214.66;10319390;28;1185;-86
2021/03/24 23:33:43;;;;;;;;;;;4.70;93.90;;;3.67;69.84;96208.88;10319750;28;2394;-87
2021/03/24 23:38:47;;;;;;;;;;;4.80;94.20;;;3.69;69.41;96206.00;10329398;28;2278;-86
2021/03/24 23:44:00;;;;;;;;;;;4.80;94.30;;;3.67;68.80;96198.25;10348400;28;2415;-87
2021/03/24 23:49:08;;;;;;;;;;;6.60;94.90;;;3.63;68.73;96205.06;10326373;28;2751;-86
2021/03/24 23:54:42;;;;;;;;;;;6.80;95.00;;;3.49;69.31;96195.56;10325099;28;2127;-84
